TimeBST,TemperatureF,Dew PointF,Humidity,Sea Level PressureIn,VisibilityMPH,Wind Direction,Wind SpeedMPH,Gust SpeedMPH,PrecipitationIn,Events,Conditions,WindDirDegrees,DateUTC
12:20 AM,55.4,51.8,88,30.30,-9999.0,SW,8.1,-,N/A,,Clear,220,2012-09-06 23:20:00
12:50 AM,56,52,81,30.30,8,SSW,8.1,,,,,210,2012-09-06 23:50:00
12:50 AM,55.4,51.8,88,30.30,-9999.0,SW,8.1,-,N/A,,Clear,230,2012-09-06 23:50:00
1:20 AM,55.4,51.8,88,30.30,6.2,SW,5.8,-,N/A,,Unknown,220,2012-09-07 00:20:00
1:50 AM,53.6,51.8,94,30.30,6.2,SW,8.1,-,N/A,,Unknown,220,2012-09-07 00:50:00
2:20 AM,53.6,50.0,88,30.27,6.2,SW,6.9,-,N/A,,Unknown,220,2012-09-07 01:20:00
2:50 AM,53.6,50.0,88,30.27,-9999.0,SW,5.8,-,N/A,,Clear,220,2012-09-07 01:50:00
3:20 AM,53.6,50.0,88,30.27,-9999.0,SW,5.8,-,N/A,,Clear,220,2012-09-07 02:20:00
3:50 AM,53,50,86,30.28,6,SW,6.9,,,,Light Haze,220,2012-09-07 02:50:00
3:50 AM,51.8,50.0,94,30.27,-9999.0,SW,4.6,-,N/A,,Clear,220,2012-09-07 02:50:00
4:20 AM,51.8,48.2,88,30.27,-9999.0,SSW,4.6,-,N/A,,Clear,210,2012-09-07 03:20:00
4:50 AM,51.8,48.2,88,30.27,-9999.0,SW,5.8,-,N/A,,Clear,230,2012-09-07 03:50:00
5:20 AM,51.8,50.0,94,30.27,5.6,WSW,4.6,-,N/A,,Unknown,240,2012-09-07 04:20:00
5:50 AM,51.8,48.2,88,30.27,5.0,West,6.9,-,N/A,,Unknown,260,2012-09-07 04:50:00
6:20 AM,51.8,48.2,88,30.27,5.0,WSW,8.1,-,N/A,,Unknown,250,2012-09-07 05:20:00
6:50 AM,53,51,88,30.27,4,West,6.9,,,,Light Haze,270,2012-09-07 05:50:00
6:50 AM,53.6,50.0,88,30.27,4.3,West,8.1,-,N/A,,Unknown,260,2012-09-07 05:50:00
7:20 AM,53.6,50.0,88,30.27,4.3,WSW,6.9,-,N/A,,Unknown,240,2012-09-07 06:20:00
7:50 AM,53.6,51.8,94,30.27,5.0,SSW,4.6,-,N/A,,Unknown,210,2012-09-07 06:50:00
8:20 AM,55.4,51.8,88,30.27,-9999.0,WSW,5.8,-,N/A,,Clear,240,2012-09-07 07:20:00
8:50 AM,59.0,51.8,77,30.27,-9999.0,SW,5.8,-,N/A,,Clear,230,2012-09-07 07:50:00
9:20 AM,60.8,51.8,72,30.27,-9999.0,West,9.2,-,N/A,,Clear,270,2012-09-07 08:20:00
9:50 AM,63,52,58,30.28,9,West,6.9,,,,,260,2012-09-07 08:50:00
9:50 AM,62.6,51.8,68,30.27,-9999.0,West,8.1,-,N/A,,Clear,270,2012-09-07 08:50:00
10:20 AM,64.4,51.8,64,30.27,-9999.0,West,5.8,-,N/A,,Clear,280,2012-09-07 09:20:00
10:50 AM,66.2,50.0,56,30.27,-9999.0,West,8.1,-,N/A,,Clear,280,2012-09-07 09:50:00
11:20 AM,68.0,50.0,52,30.27,-9999.0,West,8.1,-,N/A,,Clear,260,2012-09-07 10:20:00
11:50 AM,69.8,50.0,49,30.27,-9999.0,West,9.2,-,N/A,,Clear,270,2012-09-07 10:50:00
12:20 PM,71.6,46.4,41,30.27,-9999.0,West,9.2,-,N/A,,Clear,260,2012-09-07 11:20:00
12:50 PM,75,49,29,30.26,14,WSW,9.2,,,,,250,2012-09-07 11:50:00
12:50 PM,75.2,44.6,34,30.27,-9999.0,West,9.2,-,N/A,,Clear,270,2012-09-07 11:50:00
1:20 PM,75.2,44.6,34,30.24,-9999.0,West,11.5,-,N/A,,Clear,260,2012-09-07 12:20:00
1:50 PM,77.0,42.8,29,30.24,-9999.0,West,10.4,-,N/A,,Clear,260,2012-09-07 12:50:00
2:20 PM,78.8,44.6,30,30.24,-9999.0,West,10.4,-,N/A,,Clear,260,2012-09-07 13:20:00
2:50 PM,78.8,42.8,28,30.24,-9999.0,WNW,11.5,-,N/A,,Clear,290,2012-09-07 13:50:00
3:20 PM,78.8,37.4,23,30.24,-9999.0,West,10.4,-,N/A,,Clear,270,2012-09-07 14:20:00
3:50 PM,79,44,19,30.23,17,West,11.5,,,,,260,2012-09-07 14:50:00
3:50 PM,78.8,37.4,23,30.21,-9999.0,West,10.4,-,N/A,,Clear,270,2012-09-07 14:50:00
4:20 PM,78.8,39.2,24,30.21,-9999.0,WSW,10.4,-,N/A,,Clear,240,2012-09-07 15:20:00
4:50 PM,78.8,41.0,26,30.21,-9999.0,West,10.4,-,N/A,,Clear,260,2012-09-07 15:50:00
5:20 PM,78.8,42.8,28,30.21,-9999.0,WSW,11.5,-,N/A,,Clear,240,2012-09-07 16:20:00
5:50 PM,77.0,42.8,29,30.21,-9999.0,WSW,9.2,-,N/A,,Clear,240,2012-09-07 16:50:00
6:20 PM,77.0,42.8,29,30.21,-9999.0,West,9.2,-,N/A,,Clear,260,2012-09-07 17:20:00
6:50 PM,75,47,26,30.21,12,WSW,8.1,,,,,250,2012-09-07 17:50:00
6:50 PM,75.2,42.8,31,30.21,-9999.0,WSW,10.4,-,N/A,,Clear,240,2012-09-07 17:50:00
7:20 PM,73.4,41.0,31,30.21,-9999.0,WSW,9.2,-,N/A,,Clear,240,2012-09-07 18:20:00
7:50 PM,69.8,42.8,38,30.21,-9999.0,WSW,9.2,-,N/A,,Clear,250,2012-09-07 18:50:00
8:20 PM,68.0,42.8,40,30.21,-9999.0,West,9.2,-,N/A,,Clear,280,2012-09-07 19:20:00
8:50 PM,66.2,46.4,49,30.21,-9999.0,West,9.2,-,N/A,,Clear,280,2012-09-07 19:50:00
9:20 PM,66.2,46.4,49,30.21,-9999.0,West,6.9,-,N/A,,Clear,280,2012-09-07 20:20:00
9:50 PM,66,48,42,30.23,9,WNW,5.8,,,,,290,2012-09-07 20:50:00
9:50 PM,64.4,46.4,52,30.21,-9999.0,WNW,5.8,-,N/A,,Clear,290,2012-09-07 20:50:00
10:20 PM,64.4,46.4,52,30.21,-9999.0,WNW,4.6,-,N/A,,Clear,300,2012-09-07 21:20:00
10:50 PM,64.4,46.4,52,30.21,-9999.0,WNW,4.6,-,N/A,,Clear,290,2012-09-07 21:50:00
11:50 PM,59.0,48.2,67,30.21,-9999.0,West,3.5,-,N/A,,Clear,260,2012-09-07 22:50:00